Time;durP1;ratioP1;P1;durP2;ratioP2;P2;SDS_P1;SDS_P2;PMS_P1;PMS_P2;Temp;Humidity;BMP_temperature;BMP_pressure;BME280_temperature;BME280_humidity;BME280_pressure;Samples;Min_cycle;Max_cycle;Signal;HPM_P1;HPM_P2
2022/04/24 00:02:19;;;;;;;6.82;3.88;;;;;;;7.70;67.83;99984.50;5058529;28;20058;-79
2022/04/24 00:04:47;;;;;;;15.20;4.32;;;;;;;7.65;68.44;99981.31;5055043;28;20131;-79
2022/04/24 00:07:14;;;;;;;7.47;4.13;;;;;;;7.65;68.27;99986.56;5060248;28;20045;-78
2022/04/24 00:09:42;;;;;;;7.07;4.15;;;;;;;7.61;68.06;99985.91;5073004;28;20083;-80
2022/04/24 00:12:09;;;;;;;12.48;4.25;;;;;;;7.58;68.17;99979.06;5026974;28;20129;-78
2022/04/24 00:14:37;;;;;;;10.05;4.57;;;;;;;7.56;69.22;99975.66;5071480;28;20396;-78
2022/04/24 00:17:04;;;;;;;6.13;4.53;;;;;;;7.55;69.71;99979.22;5042062;28;20048;-79
2022/04/24 00:19:31;;;;;;;8.75;4.43;;;;;;;7.52;69.44;99981.16;5058968;28;20063;-79
2022/04/24 00:21:59;;;;;;;8.88;4.43;;;;;;;7.49;69.55;99976.13;5071747;28;20076;-79
2022/04/24 00:24:26;;;;;;;9.02;4.35;;;;;;;7.48;70.02;99979.66;5072162;28;20040;-79
2022/04/24 00:26:54;;;;;;;9.45;4.57;;;;;;;7.42;70.04;99980.00;5073969;28;20081;-79
2022/04/24 00:29:21;;;;;;;8.35;4.07;;;;;;;7.35;70.86;99976.91;5071045;28;20132;-79
2022/04/24 00:31:48;;;;;;;6.32;3.72;;;;;;;7.34;70.50;99972.59;5054710;28;20456;-78
2022/04/24 00:34:16;;;;;;;10.90;4.30;;;;;;;7.37;70.73;99964.53;5056332;28;20048;-78
2022/04/24 00:36:46;;;;;;;11.85;4.43;;;;;;;7.31;71.45;99963.13;5056719;28;20044;-78
2022/04/24 00:39:14;;;;;;;7.40;4.22;;;;;;;7.29;71.50;99964.13;5054832;28;20320;-78
2022/04/24 00:41:46;;;;;;;7.50;4.32;;;;;;;7.24;72.10;99960.91;5036889;28;20499;-78
2022/04/24 00:44:14;;;;;;;7.35;4.15;;;;;;;7.19;72.23;99957.72;5050411;28;20381;-78
2022/04/24 00:47:17;;;;;;;8.02;4.63;;;;;;;7.18;72.71;99956.88;5027269;28;20047;-80
2022/04/24 00:49:45;;;;;;;10.50;4.40;;;;;;;7.14;72.94;99955.34;4990016;28;20088;-79
2022/04/24 00:52:13;;;;;;;11.75;5.38;;;;;;;7.10;73.62;99949.44;5041306;28;20064;-78
2022/04/24 00:54:41;;;;;;;8.18;4.50;;;;;;;7.07;73.48;99954.03;5042134;28;20524;-78
2022/04/24 00:57:10;;;;;;;9.30;4.35;;;;;;;7.06;73.16;99945.31;5073398;28;20488;-78
2022/04/24 00:59:38;;;;;;;6.65;4.55;;;;;;;7.00;74.33;99948.28;5042816;28;20091;-78
2022/04/24 01:02:06;;;;;;;7.72;4.65;;;;;;;6.97;74.30;99947.59;5050655;28;20048;-79
2022/04/24 01:04:34;;;;;;;8.30;4.75;;;;;;;6.93;74.80;99944.28;5067716;28;20123;-80
2022/04/24 01:07:02;;;;;;;6.97;4.40;;;;;;;6.89;75.06;99947.16;5040916;28;20048;-79
2022/04/24 01:09:32;;;;;;;9.25;5.20;;;;;;;6.88;75.32;99938.47;5055198;28;20049;-78
2022/04/24 01:11:59;;;;;;;8.00;4.57;;;;;;;6.86;75.34;99940.34;5065724;28;20056;-79
2022/04/24 01:14:27;;;;;;;16.17;5.43;;;;;;;6.83;75.40;99933.47;5076722;28;20101;-79
2022/04/24 01:16:54;;;;;;;7.55;4.35;;;;;;;6.80;76.30;99938.06;5062687;28;20056;-78
2022/04/24 01:19:22;;;;;;;11.38;5.65;;;;;;;6.79;76.08;99931.13;5062245;28;20048;-79
2022/04/24 01:21:49;;;;;;;8.35;4.40;;;;;;;6.77;76.30;99933.81;5067014;28;20082;-79
2022/04/24 01:24:22;;;;;;;11.35;6.13;;;;;;;6.75;76.34;99932.22;5065105;28;20045;-79
2022/04/24 01:26:50;;;;;;;13.93;5.55;;;;;;;6.73;76.33;99926.22;5046643;28;20128;-78
2022/04/24 01:29:18;;;;;;;9.77;4.82;;;;;;;6.66;77.56;99922.25;5043033;28;20056;-80
2022/04/24 01:31:48;;;;;;;13.55;5.25;;;;;;;6.58;77.79;99923.53;5040629;28;20123;-80
2022/04/24 01:34:17;;;;;;;8.27;4.75;;;;;;;6.52;78.19;99928.22;5062457;28;20049;-79
2022/04/24 01:36:44;;;;;;;10.10;5.32;;;;;;;6.50;78.55;99933.53;5043437;28;20051;-79
2022/04/24 01:39:14;;;;;;;14.50;6.00;;;;;;;6.44;78.71;99923.41;5061863;28;20063;-79
2022/04/24 01:41:41;;;;;;;7.85;4.57;;;;;;;6.42;79.29;99925.25;5052124;28;20048;-78
2022/04/24 01:44:08;;;;;;;11.55;5.20;;;;;;;6.43;78.72;99923.47;5047557;28;20040;-79
2022/04/24 01:46:35;;;;;;;12.27;4.70;;;;;;;6.46;79.03;99913.72;5062836;28;20055;-79
2022/04/24 01:49:03;;;;;;;8.68;4.60;;;;;;;6.44;79.18;99912.09;5051432;28;20052;-79
2022/04/24 01:51:30;;;;;;;11.13;4.70;;;;;;;6.38;79.89;99908.03;5048658;28;20052;-79
2022/04/24 01:53:57;;;;;;;12.95;5.30;;;;;;;6.35;79.94;99910.84;5060697;28;20052;-79
2022/04/24 01:56:24;;;;;;;10.38;5.57;;;;;;;6.34;80.05;99919.56;5078523;28;20056;-79
2022/04/24 01:58:51;;;;;;;7.22;4.18;;;;;;;6.32;79.84;99911.81;5073320;28;20036;-78
2022/04/24 02:01:19;;;;;;;8.52;5.03;;;;;;;6.30;80.42;99915.44;5044029;28;20073;-78
2022/04/24 02:03:46;;;;;;;10.48;5.70;;;;;;;6.28;80.42;99918.13;5059763;28;20052;-79
2022/04/24 02:06:14;;;;;;;10.55;4.65;;;;;;;6.31;80.36;99917.97;5060017;28;20198;-78
2022/04/24 02:08:41;;;;;;;7.47;4.82;;;;;;;6.28;79.85;99919.91;5049592;28;20056;-78
2022/04/24 02:11:08;;;;;;;11.82;4.70;;;;;;;6.26;80.17;99919.13;5054844;28;20272;-78
2022/04/24 02:13:36;;;;;;;11.93;5.47;;;;;;;6.19;80.96;99920.38;5074996;28;20049;-78
2022/04/24 02:16:03;;;;;;;8.65;5.00;;;;;;;6.15;81.01;99913.63;5028332;28;20052;-78
2022/04/24 02:18:31;;;;;;;10.88;4.43;;;;;;;6.12;81.56;99919.84;5044629;28;20164;-79
2022/04/24 02:20:58;;;;;;;7.85;4.95;;;;;;;6.04;82.22;99920.25;5058646;28;20393;-78
2022/04/24 02:23:25;;;;;;;7.28;4.32;;;;;;;6.02;81.92;99924.72;5046147;28;20056;-79
2022/04/24 02:25:52;;;;;;;11.32;5.82;;;;;;;5.98;82.24;99911.88;5067301;28;20057;-79
2022/04/24 02:28:20;;;;;;;8.07;4.80;;;;;;;5.96;82.41;99911.13;5061758;28;20056;-79
2022/04/24 02:30:47;;;;;;;11.55;4.68;;;;;;;5.95;82.27;99910.28;5058833;28;20063;-78
2022/04/24 02:33:14;;;;;;;11.32;5.43;;;;;;;5.95;82.31;99909.44;5063501;28;20203;-78
2022/04/24 02:35:42;;;;;;;8.95;5.57;;;;;;;5.95;82.41;99915.50;5062922;28;20048;-80
2022/04/24 02:38:09;;;;;;;11.82;6.05;;;;;;;5.93;82.79;99908.66;5058527;28;20040;-78
2022/04/24 02:40:37;;;;;;;10.20;5.18;;;;;;;5.88;82.85;99908.03;5077864;28;20466;-78
2022/04/24 02:43:05;;;;;;;11.23;5.90;;;;;;;5.86;83.55;99908.13;5064062;28;20045;-79
2022/04/24 02:45:32;;;;;;;9.50;5.25;;;;;;;5.90;82.50;99898.31;5078034;28;20053;-77
2022/04/24 02:47:59;;;;;;;9.95;5.68;;;;;;;5.85;83.60;99898.56;5042304;28;20120;-78
2022/04/24 02:50:27;;;;;;;12.80;5.20;;;;;;;5.82;83.53;99893.53;5073001;28;20208;-79
2022/04/24 02:52:55;;;;;;;9.90;4.93;;;;;;;5.79;83.95;99898.88;5076918;28;20056;-79
2022/04/24 02:55:24;;;;;;;8.40;5.20;;;;;;;5.78;83.81;99894.59;5032277;28;20052;-79
2022/04/24 02:57:52;;;;;;;11.40;5.32;;;;;;;5.77;83.97;99892.91;5045477;28;20146;-78
2022/04/24 03:00:22;;;;;;;12.05;5.75;;;;;;;5.77;84.01;99885.91;5044910;28;20060;-79
2022/04/24 03:02:50;;;;;;;15.02;6.13;;;;;;;5.78;83.76;99881.53;5049689;28;20564;-79
2022/04/24 03:05:22;;;;;;;11.77;6.22;;;;;;;5.78;84.05;99878.94;5026963;28;20078;-78
2022/04/24 03:07:49;;;;;;;11.40;5.22;;;;;;;5.69;84.49;99877.63;5065143;28;20112;-79
2022/04/24 03:10:17;;;;;;;11.25;5.40;;;;;;;5.67;84.55;99873.38;5073545;28;20057;-79
2022/04/24 03:12:44;;;;;;;10.70;5.90;;;;;;;5.68;84.64;99869.88;5056477;28;20139;-78
2022/04/24 03:15:13;;;;;;;11.20;5.60;;;;;;;5.59;85.17;99866.81;5060102;28;20070;-79
2022/04/24 03:17:40;;;;;;;8.45;5.78;;;;;;;5.53;85.53;99864.47;5055036;28;20087;-80
2022/04/24 03:20:09;;;;;;;9.82;5.70;;;;;;;5.51;86.09;99858.50;5044852;28;20116;-79
2022/04/24 03:22:36;;;;;;;12.30;5.50;;;;;;;5.46;85.62;99857.91;5059851;28;20448;-79
2022/04/24 03:25:06;;;;;;;11.93;5.95;;;;;;;5.46;85.73;99850.06;5062288;28;20044;-78
2022/04/24 03:27:33;;;;;;;10.23;6.10;;;;;;;5.46;86.33;99854.44;5024457;28;20067;-79
2022/04/24 03:30:01;;;;;;;9.02;5.82;;;;;;;5.41;86.40;99859.06;5070044;28;20132;-79
2022/04/24 03:32:32;;;;;;;10.30;6.53;;;;;;;5.38;87.20;99852.22;5040963;28;20049;-79
2022/04/24 03:35:00;;;;;;;11.32;5.90;;;;;;;5.36;87.12;99853.19;5054488;28;20037;-78
2022/04/24 03:37:27;;;;;;;8.68;5.40;;;;;;;5.31;87.23;99853.41;5053666;28;20052;-79
2022/04/24 03:39:54;;;;;;;16.13;6.03;;;;;;;5.32;87.63;99849.91;5043370;28;20048;-79
2022/04/24 03:42:22;;;;;;;9.95;5.80;;;;;;;5.24;88.06;99850.28;5044666;28;20067;-79
2022/04/24 03:44:49;;;;;;;11.07;6.55;;;;;;;5.25;87.26;99851.97;5056007;28;20128;-80
2022/04/24 03:47:16;;;;;;;13.88;5.68;;;;;;;5.23;88.15;99853.81;5036413;28;20144;-79
2022/04/24 03:49:43;;;;;;;18.23;6.35;;;;;;;5.21;88.59;99853.03;5056756;28;20067;-79
2022/04/24 03:52:11;;;;;;;12.50;6.50;;;;;;;5.17;89.20;99858.47;5040472;28;20057;-78
2022/04/24 03:54:38;;;;;;;15.50;7.35;;;;;;;5.16;88.96;99857.63;5058320;28;20059;-79
2022/04/24 03:57:06;;;;;;;13.23;6.30;;;;;;;5.18;88.72;99857.56;5044617;28;20391;-79
2022/04/24 03:59:34;;;;;;;8.55;5.45;;;;;;;5.20;89.44;99853.97;5054622;28;20172;-79
2022/04/24 04:02:02;;;;;;;11.45;6.13;;;;;;;5.19;88.90;99860.09;5046537;28;20078;-79
2022/04/24 04:04:30;;;;;;;12.43;6.20;;;;;;;5.13;89.91;99854.31;5054506;28;20063;-79
2022/04/24 04:06:57;;;;;;;16.25;6.53;;;;;;;5.14;89.19;99848.22;5056186;28;20045;-79
2022/04/24 04:09:24;;;;;;;12.23;6.63;;;;;;;5.20;88.12;99853.13;5066894;28;20103;-78
2022/04/24 04:11:51;;;;;;;11.70;5.90;;;;;;;5.26;88.42;99858.88;5049087;28;20045;-79
2022/04/24 04:14:19;;;;;;;11.68;6.43;;;;;;;5.24;88.68;99855.50;5045791;28;20044;-78
2022/04/24 04:16:46;;;;;;;13.55;6.95;;;;;;;5.22;89.08;99856.47;5052710;28;20135;-78
2022/04/24 04:19:13;;;;;;;15.23;6.35;;;;;;;5.23;89.34;99856.44;5075541;28;20063;-79
2022/04/24 04:21:42;;;;;;;10.70;6.30;;;;;;;5.28;88.86;99864.88;5044474;28;20109;-78
2022/04/24 04:24:10;;;;;;;12.05;5.78;;;;;;;5.32;88.85;99869.03;5059952;28;20049;-79
2022/04/24 04:26:37;;;;;;;15.05;6.00;;;;;;;5.36;89.03;99868.84;5041548;28;20183;-79
2022/04/24 04:29:04;;;;;;;13.15;6.00;;;;;;;5.41;88.61;99874.72;5055552;28;20053;-78
2022/04/24 04:31:31;;;;;;;13.38;6.45;;;;;;;5.43;88.44;99867.63;5033769;28;20049;-79
2022/04/24 04:33:59;;;;;;;12.52;6.63;;;;;;;5.45;88.52;99874.50;5070487;28;20088;-78
2022/04/24 04:36:26;;;;;;;11.07;6.20;;;;;;;5.47;88.16;99862.19;5064677;28;20097;-79
2022/04/24 04:38:53;;;;;;;13.20;6.28;;;;;;;5.51;88.69;99868.94;5040116;28;20037;-77
2022/04/24 04:41:20;;;;;;;15.20;6.43;;;;;;;5.57;88.38;99867.78;5075934;28;20072;-78
2022/04/24 04:43:48;;;;;;;18.83;6.85;;;;;;;5.62;87.76;99862.34;5072832;28;20079;-79
2022/04/24 04:46:15;;;;;;;12.18;6.10;;;;;;;5.68;87.57;99862.03;5035479;28;20052;-79
2022/04/24 04:48:42;;;;;;;11.57;6.43;;;;;;;5.71;87.31;99864.47;5068596;28;20135;-78
2022/04/24 04:51:10;;;;;;;12.57;6.93;;;;;;;5.74;87.27;99865.16;5060166;28;20419;-79
2022/04/24 04:53:37;;;;;;;11.10;6.25;;;;;;;5.82;86.74;99867.41;5075705;28;20094;-78
2022/04/24 04:56:05;;;;;;;14.40;6.65;;;;;;;5.90;86.42;99865.25;5036353;28;20048;-79
2022/04/24 04:58:32;;;;;;;13.20;6.43;;;;;;;5.95;86.73;99865.88;5048901;28;20454;-79
2022/04/24 05:01:00;;;;;;;13.43;6.70;;;;;;;5.95;86.54;99862.41;5051431;28;20067;-78
2022/04/24 05:03:28;;;;;;;12.80;6.88;;;;;;;5.98;86.62;99863.09;5050920;28;20049;-79
2022/04/24 05:05:55;;;;;;;11.15;5.72;;;;;;;6.06;86.32;99865.31;5041154;28;20080;-79
2022/04/24 05:08:22;;;;;;;13.77;6.28;;;;;;;6.17;85.45;99859.50;5056382;28;20141;-79
2022/04/24 05:10:49;;;;;;;8.50;5.68;;;;;;;6.27;85.01;99868.56;5063854;28;20468;-79
2022/04/24 05:13:17;;;;;;;13.45;6.50;;;;;;;6.33;84.65;99866.44;5076701;28;20135;-78
2022/04/24 05:15:44;;;;;;;12.38;6.63;;;;;;;6.43;84.26;99861.56;5040392;28;20072;-79
2022/04/24 05:18:11;;;;;;;14.05;6.82;;;;;;;6.51;83.83;99862.00;5075632;28;20124;-79
2022/04/24 05:20:38;;;;;;;13.40;6.57;;;;;;;6.56;83.49;99865.22;5059148;28;20064;-78
2022/04/24 05:27:09;;;;;;;13.38;6.50;;;;;;;6.91;81.93;99878.13;5069101;28;20084;-79
2022/04/24 05:29:36;;;;;;;10.40;6.05;;;;;;;7.00;81.72;99868.91;5040098;28;20106;-80
2022/04/24 05:32:04;;;;;;;12.25;6.57;;;;;;;7.22;80.52;99861.53;5036866;28;20453;-79
2022/04/24 05:34:32;;;;;;;13.60;6.70;;;;;;;7.42;79.85;99876.09;5057047;28;20148;-77
2022/04/24 05:36:59;;;;;;;16.23;6.30;;;;;;;7.65;78.73;99876.53;5073141;28;20063;-78
2022/04/24 05:39:26;;;;;;;12.25;6.78;;;;;;;7.91;77.25;99867.97;5030919;28;20525;-78
2022/04/24 05:41:53;;;;;;;10.55;6.32;;;;;;;8.08;76.04;99873.03;5040270;28;20255;-79
2022/04/24 05:44:20;;;;;;;11.02;6.20;;;;;;;8.08;76.05;99870.41;5057515;28;20039;-78
2022/04/24 05:46:47;;;;;;;12.35;6.65;;;;;;;8.09;75.83;99872.09;5052003;28;20059;-78
2022/04/24 05:49:14;;;;;;;14.27;6.80;;;;;;;8.09;76.26;99863.41;5039703;28;20057;-78
2022/04/24 05:51:42;;;;;;;11.23;6.07;;;;;;;8.13;75.54;99863.13;5056537;28;20044;-77
2022/04/24 05:54:10;;;;;;;11.95;6.82;;;;;;;8.15;75.17;99860.41;5055644;28;20051;-78
2022/04/24 05:56:41;;;;;;;14.23;6.70;;;;;;;8.10;75.15;99871.19;5037146;28;20116;-79
2022/04/24 05:59:08;;;;;;;14.77;6.10;;;;;;;8.11;74.97;99869.41;5048071;28;20059;-78
2022/04/24 06:01:36;;;;;;;14.18;6.43;;;;;;;8.12;74.33;99868.47;5043878;28;20085;-78
2022/04/24 06:04:03;;;;;;;16.38;5.57;;;;;;;8.09;74.78;99872.09;5062216;28;20040;-79
2022/04/24 06:06:32;;;;;;;20.25;6.68;;;;;;;8.20;73.55;99860.97;5065611;28;20063;-80
2022/04/24 06:08:59;;;;;;;11.93;6.38;;;;;;;8.39;73.84;99865.97;5065295;28;20049;-80
2022/04/24 06:11:26;;;;;;;11.40;6.10;;;;;;;8.48;73.15;99867.16;5061579;28;20036;-79
2022/04/24 06:13:53;;;;;;;9.32;5.53;;;;;;;8.61;73.07;99876.81;5044646;28;20061;-79
2022/04/24 06:16:21;;;;;;;12.55;6.72;;;;;;;8.88;72.45;99876.00;5079198;28;20053;-79
2022/04/24 06:18:48;;;;;;;13.35;6.28;;;;;;;8.99;71.88;99875.31;5056863;28;20112;-79
2022/04/24 06:21:15;;;;;;;8.45;5.80;;;;;;;9.08;70.72;99862.41;5079344;28;20089;-78
2022/04/24 06:23:42;;;;;;;10.55;5.95;;;;;;;9.18;71.39;99867.91;5060493;28;20170;-78
2022/04/24 06:26:09;;;;;;;15.05;6.20;;;;;;;9.27;70.76;99863.84;5061635;28;20063;-79
2022/04/24 06:28:37;;;;;;;10.45;6.25;;;;;;;9.36;70.28;99860.59;5018318;28;20055;-79
2022/04/24 06:31:04;;;;;;;12.18;6.53;;;;;;;9.49;69.58;99853.59;5039488;28;20056;-79
2022/04/24 06:33:31;;;;;;;11.02;5.88;;;;;;;9.62;68.84;99857.09;5047691;28;20044;-79
2022/04/24 06:35:59;;;;;;;10.93;5.97;;;;;;;9.80;68.35;99852.38;5044414;28;20059;-79
2022/04/24 06:38:26;;;;;;;11.70;6.22;;;;;;;10.02;66.37;99849.13;5066267;28;20048;-78
2022/04/24 06:40:54;;;;;;;12.10;5.93;;;;;;;10.02;66.63;99849.13;5035911;28;20064;-79
2022/04/24 06:43:21;;;;;;;12.93;7.93;;;;;;;10.10;66.76;99843.34;5045444;28;20041;-79
2022/04/24 06:45:48;;;;;;;12.45;6.20;;;;;;;10.14;66.14;99845.66;5052560;28;20044;-78
2022/04/24 06:48:16;;;;;;;11.25;6.28;;;;;;;10.35;65.31;99845.13;5076007;28;20049;-79
2022/04/24 06:50:45;;;;;;;9.60;6.40;;;;;;;10.38;64.84;99844.91;5055842;28;20052;-79
2022/04/24 06:53:14;;;;;;;13.65;6.57;;;;;;;10.50;64.40;99844.06;5048492;28;20509;-79
2022/04/24 06:55:42;;;;;;;10.60;6.65;;;;;;;10.70;63.73;99839.97;5068742;28;20039;-79
2022/04/24 06:58:10;;;;;;;12.70;6.57;;;;;;;10.92;62.52;99833.16;5073179;28;20178;-79
2022/04/24 07:00:39;;;;;;;11.65;5.88;;;;;;;10.97;62.62;99833.66;5069690;28;20264;-79
2022/04/24 07:03:28;;;;;;;9.50;6.20;;;;;;;11.05;62.34;99834.78;5063683;28;20075;-79
2022/04/24 07:06:00;;;;;;;9.98;6.50;;;;;;;11.14;61.29;99834.13;5055143;28;20048;-80
2022/04/24 07:08:29;;;;;;;11.88;6.38;;;;;;;11.38;60.89;99833.25;5046745;28;20055;-80
2022/04/24 07:10:56;;;;;;;13.20;6.97;;;;;;;11.54;60.40;99833.78;5046989;28;20108;-79
2022/04/24 07:13:24;;;;;;;11.50;6.38;;;;;;;11.70;60.03;99833.44;5033904;28;20074;-80
2022/04/24 07:15:54;;;;;;;11.82;6.63;;;;;;;11.70;59.87;99827.31;5025457;28;20322;-79
2022/04/24 07:18:21;;;;;;;15.20;6.68;;;;;;;11.89;59.26;99825.00;5045287;28;20075;-80
2022/04/24 07:20:49;;;;;;;14.23;5.80;;;;;;;11.99;58.34;99818.06;5056131;28;20063;-79
2022/04/24 07:23:16;;;;;;;10.10;6.05;;;;;;;12.09;58.01;99820.81;5062054;28;20530;-79
2022/04/24 07:25:44;;;;;;;11.43;6.22;;;;;;;12.20;57.66;99818.16;5042526;28;20124;-79
2022/04/24 07:28:12;;;;;;;10.48;5.90;;;;;;;12.27;57.40;99811.47;5059095;28;20045;-80
2022/04/24 07:30:39;;;;;;;7.57;5.55;;;;;;;12.33;56.40;99810.13;5049177;28;20052;-78
2022/04/24 07:33:07;;;;;;;10.18;6.20;;;;;;;12.24;55.76;99808.22;5062063;28;20051;-80
2022/04/24 07:35:36;;;;;;;12.85;6.38;;;;;;;12.15;56.11;99805.34;5042770;28;20501;-80
2022/04/24 07:38:03;;;;;;;10.35;5.53;;;;;;;12.41;55.68;99808.56;5078735;28;20049;-79
2022/04/24 07:40:32;;;;;;;8.93;5.45;;;;;;;12.55;55.26;99802.19;5042682;28;20063;-78
2022/04/24 07:43:00;;;;;;;10.82;6.25;;;;;;;12.62;55.41;99802.53;5060050;28;20049;-80
2022/04/24 07:45:42;;;;;;;10.40;5.85;;;;;;;13.03;53.85;99800.97;5039412;28;20323;-78
2022/04/24 07:48:10;;;;;;;10.88;4.60;;;;;;;13.40;53.11;99793.50;5059559;28;20059;-79
2022/04/24 07:50:49;;;;;;;11.00;5.13;;;;;;;13.67;51.36;99792.97;5040279;28;20040;-78
2022/04/24 07:53:18;;;;;;;9.45;4.93;;;;;;;13.56;50.13;99787.75;5068268;28;20060;-79
2022/04/24 07:55:49;;;;;;;9.88;5.25;;;;;;;13.60;50.24;99795.31;5061864;28;20048;-79
2022/04/24 07:58:17;;;;;;;7.15;5.60;;;;;;;13.88;49.56;99785.84;5048246;28;20128;-78
2022/04/24 08:00:45;;;;;;;8.57;4.55;;;;;;;14.01;49.07;99779.50;5036913;28;20048;-78
2022/04/24 08:03:14;;;;;;;6.60;4.90;;;;;;;13.76;49.16;99775.47;5038697;28;20048;-79
2022/04/24 08:05:47;;;;;;;7.57;4.82;;;;;;;13.79;48.50;99777.88;5053307;28;20079;-78
2022/04/24 08:08:19;;;;;;;8.05;4.82;;;;;;;14.20;47.99;99774.28;5041164;28;20048;-79
2022/04/24 08:10:48;;;;;;;9.55;4.63;;;;;;;14.53;47.15;99773.13;5065237;28;20061;-79
2022/04/24 08:13:17;;;;;;;9.75;4.70;;;;;;;14.74;46.19;99773.03;5041817;28;20113;-79
2022/04/24 08:15:44;;;;;;;7.53;4.45;;;;;;;14.81;45.29;99773.31;5054823;28;20071;-78
2022/04/24 08:18:12;;;;;;;6.97;4.35;;;;;;;14.96;45.39;99776.41;5071349;28;20219;-79
2022/04/24 08:20:40;;;;;;;6.07;3.58;;;;;;;15.17;45.37;99777.94;5020007;28;20049;-79
2022/04/24 08:23:08;;;;;;;8.80;4.75;;;;;;;15.38;44.92;99772.47;5038256;28;20055;-77
2022/04/24 08:25:36;;;;;;;7.80;4.20;;;;;;;15.57;44.81;99770.75;5050466;28;20156;-78
2022/04/24 08:28:06;;;;;;;10.25;4.57;;;;;;;15.76;43.68;99768.09;5039614;28;20627;-78
2022/04/24 08:30:41;;;;;;;6.28;4.45;;;;;;;15.68;42.96;99765.31;5055468;28;20053;-78
2022/04/24 08:33:09;;;;;;;6.18;3.75;;;;;;;15.65;43.55;99763.78;5059515;28;20070;-79
2022/04/24 08:35:36;;;;;;;13.52;4.28;;;;;;;15.70;42.87;99766.00;5021532;28;20075;-78
2022/04/24 08:38:04;;;;;;;6.13;3.42;;;;;;;15.73;43.11;99770.19;5075302;28;20059;-78
2022/04/24 08:40:31;;;;;;;7.30;4.53;;;;;;;15.82;43.06;99758.72;5058535;28;20048;-78
2022/04/24 08:43:00;;;;;;;5.78;3.33;;;;;;;15.82;43.20;99761.38;5041793;28;20068;-79
2022/04/24 08:45:29;;;;;;;5.03;3.88;;;;;;;15.99;42.96;99752.63;5058626;28;20487;-79
2022/04/24 08:47:57;;;;;;;9.30;4.03;;;;;;;16.03;43.06;99748.72;5059421;28;20104;-79
2022/04/24 08:50:29;;;;;;;6.55;3.88;;;;;;;16.13;42.60;99757.47;5067474;28;20055;-79
2022/04/24 08:52:57;;;;;;;7.65;4.15;;;;;;;16.24;41.69;99750.28;5043748;28;20045;-79
2022/04/24 08:55:26;;;;;;;9.15;3.65;;;;;;;16.32;41.68;99753.03;5056573;28;20457;-79
2022/04/24 08:57:54;;;;;;;6.00;3.97;;;;;;;16.42;41.94;99759.94;5023015;28;20071;-79
2022/04/24 09:00:21;;;;;;;10.27;4.30;;;;;;;16.43;41.11;99755.47;5056448;28;20045;-78
2022/04/24 09:02:50;;;;;;;11.15;4.00;;;;;;;16.45;40.46;99751.69;5046961;28;20037;-78
2022/04/24 09:05:18;;;;;;;9.82;4.00;;;;;;;16.62;41.23;99757.19;5041530;28;20116;-78
2022/04/24 09:07:46;;;;;;;4.63;3.88;;;;;;;16.66;40.54;99756.72;5054450;28;20067;-80
2022/04/24 09:11:11;;;;;;;6.70;4.28;;;;;;;16.57;41.07;99752.31;5054859;28;20052;-79
2022/04/24 09:16:32;;;;;;;9.85;4.13;;;;;;;16.82;41.40;99755.25;5044207;28;20059;-79
2022/04/24 09:18:59;;;;;;;;;;;;;;;16.89;41.24;99761.63;5057202;28;20067;-79
2022/04/24 09:21:26;;;;;;;8.75;4.47;;;;;;;17.01;41.26;99765.72;5062046;28;19925;-79
2022/04/24 09:23:57;;;;;;;10.82;5.13;;;;;;;17.28;41.35;99761.28;5029801;28;20120;-79
2022/04/24 09:26:25;;;;;;;7.43;4.70;;;;;;;17.44;40.79;99762.25;5039338;28;20048;-79
2022/04/24 09:29:13;;;;;;;8.35;5.20;;;;;;;17.43;40.82;99765.06;5063868;28;20062;-79
2022/04/24 09:31:47;;;;;;;9.75;6.53;;;;;;;17.55;39.45;99758.50;5047410;28;20168;-79
2022/04/24 09:34:18;;;;;;;8.38;5.60;;;;;;;17.59;39.55;99762.50;5063350;28;20044;-79
2022/04/24 09:36:46;;;;;;;13.30;5.82;;;;;;;17.67;40.04;99757.25;5041975;28;20055;-79
2022/04/24 09:39:13;;;;;;;7.28;4.65;;;;;;;17.71;38.71;99757.78;5063319;28;20063;-79
2022/04/24 09:41:40;;;;;;;9.55;4.65;;;;;;;17.67;39.56;99754.59;5048773;28;20139;-78
2022/04/24 09:44:13;;;;;;;5.90;3.90;;;;;;;17.76;39.14;99757.31;5042105;28;20068;-78
2022/04/24 09:46:40;;;;;;;7.75;4.72;;;;;;;17.87;40.00;99743.72;5039071;28;20075;-77
2022/04/24 09:49:09;;;;;;;6.93;4.32;;;;;;;17.93;38.82;99756.44;5027226;28;20048;-78
2022/04/24 09:51:42;;;;;;;12.15;4.55;;;;;;;18.08;38.99;99749.50;5036052;28;20059;-78
2022/04/24 09:54:10;;;;;;;13.07;4.97;;;;;;;17.96;38.52;99756.09;5055340;28;20569;-78
2022/04/24 09:56:38;;;;;;;6.60;3.92;;;;;;;17.95;38.83;99749.94;5044044;28;20396;-78
2022/04/24 09:59:05;;;;;;;7.40;3.95;;;;;;;18.19;38.99;99743.03;5076636;28;20056;-78
2022/04/24 10:01:33;;;;;;;8.40;4.57;;;;;;;18.30;39.08;99749.91;5031214;28;20125;-78
2022/04/24 10:04:01;;;;;;;4.93;3.97;;;;;;;18.56;39.22;99748.00;5059760;28;20052;-78
2022/04/24 10:06:28;;;;;;;6.93;4.07;;;;;;;18.90;38.57;99744.41;5068824;28;20208;-78
2022/04/24 10:08:57;;;;;;;9.75;4.07;;;;;;;19.20;38.69;99746.41;5061898;28;20048;-78
2022/04/24 10:11:24;;;;;;;4.43;3.80;;;;;;;19.40;37.24;99746.91;5060182;28;20045;-78
2022/04/24 10:13:58;;;;;;;6.45;4.13;;;;;;;19.44;37.45;99740.22;5061179;28;20538;-78
2022/04/24 10:16:46;;;;;;;7.72;3.92;;;;;;;19.67;36.26;99747.56;5076896;28;20055;-79
2022/04/24 10:19:25;;;;;;;5.35;3.63;;;;;;;20.03;35.69;99747.94;5039132;28;20049;-79
2022/04/24 10:22:33;;;;;;;6.68;4.70;;;;;;;20.19;35.10;99741.72;5058998;28;20040;-79
2022/04/24 10:25:02;;;;;;;6.95;3.30;;;;;;;20.27;34.76;99738.19;5073099;28;20049;-79
2022/04/24 10:27:55;;;;;;;7.32;3.70;;;;;;;20.45;34.88;99738.75;5040755;28;20069;-79
2022/04/24 10:30:24;;;;;;;7.82;4.30;;;;;;;20.47;34.57;99726.03;5047828;28;20045;-79
2022/04/24 10:33:18;;;;;;;9.07;3.60;;;;;;;20.55;34.57;99739.38;5045071;28;20065;-78
2022/04/24 10:36:05;;;;;;;6.38;3.97;;;;;;;20.31;35.43;99726.97;5062170;28;20060;-78
2022/04/24 10:38:44;;;;;;;7.03;3.85;;;;;;;20.15;34.04;99729.69;5042832;28;20144;-79
2022/04/24 10:41:27;;;;;;;5.07;3.78;;;;;;;19.65;34.07;99734.38;5043540;28;20158;-79
2022/04/24 10:43:58;;;;;;;6.45;3.88;;;;;;;19.75;34.08;99742.19;5041443;28;20123;-79
2022/04/24 10:46:32;;;;;;;6.10;3.78;;;;;;;20.00;34.19;99728.78;5079081;28;20048;-80
2022/04/24 10:49:10;;;;;;;6.70;3.58;;;;;;;20.42;33.91;99725.72;5080569;28;20059;-79
2022/04/24 10:51:43;;;;;;;6.13;3.45;;;;;;;20.83;32.54;99720.13;5043723;28;20611;-79
2022/04/24 10:54:13;;;;;;;9.93;3.50;;;;;;;20.69;32.43;99730.59;5062487;28;20072;-80
2022/04/24 10:56:41;;;;;;;17.13;3.90;;;;;;;20.45;32.87;99718.19;5081737;28;20133;-79
2022/04/24 10:59:12;;;;;;;5.82;3.53;;;;;;;20.52;32.44;99738.91;5028799;28;20144;-79
2022/04/24 11:01:44;;;;;;;6.03;3.60;;;;;;;20.38;32.16;99729.75;5071017;28;20037;-79
2022/04/24 11:04:14;;;;;;;9.55;3.72;;;;;;;19.66;32.62;99732.53;5066921;28;20052;-79
2022/04/24 11:06:55;;;;;;;11.55;3.83;;;;;;;19.55;33.89;99728.38;5062181;28;20170;-79
2022/04/24 11:09:23;;;;;;;8.95;3.67;;;;;;;19.33;34.45;99718.41;5046079;28;20051;-79
2022/04/24 11:12:07;;;;;;;5.20;3.40;;;;;;;19.29;34.67;99727.75;5062119;28;20280;-79
2022/04/24 11:14:35;;;;;;;8.20;3.85;;;;;;;19.40;34.05;99714.03;5047611;28;20048;-79
2022/04/24 11:17:05;;;;;;;9.77;3.28;;;;;;;19.39;33.78;99715.03;5048105;28;20047;-79
2022/04/24 11:19:36;;;;;;;7.50;2.90;;;;;;;19.60;33.41;99719.84;5057705;28;20036;-79
2022/04/24 11:22:10;;;;;;;4.40;2.75;;;;;;;19.66;33.43;99711.19;5076349;28;20077;-79
2022/04/24 11:24:39;;;;;;;7.57;2.70;;;;;;;19.85;33.10;99713.44;5025157;28;20052;-79
2022/04/24 11:27:11;;;;;;;5.75;2.83;;;;;;;19.86;33.17;99719.66;5058858;28;20062;-79
2022/04/24 11:29:39;;;;;;;5.35;2.90;;;;;;;19.88;33.07;99710.44;5052686;28;20045;-79
2022/04/24 11:32:12;;;;;;;4.07;3.15;;;;;;;20.30;32.04;99711.91;5043355;28;20055;-79
2022/04/24 11:34:39;;;;;;;4.85;3.28;;;;;;;19.78;32.27;99711.66;5028228;28;20053;-78
2022/04/24 11:41:03;;;;;;;5.35;2.80;;;;;;;19.98;32.03;99702.22;5074249;28;20043;-79
2022/04/24 11:43:30;;;;;;;5.03;3.38;;;;;;;20.45;31.44;99699.47;5055289;28;20037;-79
2022/04/24 11:51:32;;;;;;;7.18;3.10;;;;;;;21.97;30.12;99684.22;5068828;28;20066;-79
2022/04/24 11:54:09;;;;;;;8.45;2.85;;;;;;;22.28;29.43;99700.06;5054037;28;20120;-80
2022/04/24 11:56:37;;;;;;;4.82;3.03;;;;;;;22.17;29.06;99700.59;5062313;28;20060;-79
2022/04/24 11:59:16;;;;;;;4.90;2.95;;;;;;;22.08;28.66;99696.31;5062373;28;20053;-80
2022/04/24 12:01:45;;;;;;;7.82;3.28;;;;;;;22.51;29.32;99694.56;5058357;28;20051;-79